createdAt,value
2023-06-13T00:01:49.865Z,37.85
2023-06-13T00:04:24.897Z,37.36
2023-06-13T00:06:54.435Z,37.90
2023-06-13T00:09:22.169Z,38.24
2023-06-13T00:11:50.700Z,38.19
2023-06-13T00:14:18.844Z,37.94
2023-06-13T00:16:48.164Z,38.00
2023-06-13T00:19:15.871Z,37.96
2023-06-13T00:21:43.032Z,38.14
2023-06-13T00:24:09.691Z,38.22
2023-06-13T00:26:36.160Z,38.62
2023-06-13T00:29:02.664Z,38.56
2023-06-13T00:31:30.199Z,38.66
2023-06-13T00:34:00.585Z,38.97
2023-06-13T00:36:28.790Z,38.32
2023-06-13T00:38:58.340Z,39.37
2023-06-13T00:41:25.888Z,38.44
2023-06-13T00:43:53.154Z,39.54
2023-06-13T00:46:26.545Z,39.22
2023-06-13T00:48:53.002Z,38.60
2023-06-13T00:51:22.048Z,39.17
2023-06-13T00:53:49.686Z,39.35
2023-06-13T00:56:16.388Z,39.95
2023-06-13T00:58:43.024Z,39.32
2023-06-13T01:01:10.999Z,39.64
2023-06-13T01:03:40.195Z,39.81
2023-06-13T01:06:06.843Z,40.20
2023-06-13T01:08:36.835Z,39.80
2023-06-13T01:11:17.297Z,40.36
2023-06-13T01:13:52.907Z,41.23
2023-06-13T01:16:34.988Z,41.08
2023-06-13T01:19:08.276Z,40.75
2023-06-13T01:21:35.110Z,41.23
2023-06-13T01:24:11.194Z,41.52
2023-06-13T01:26:52.341Z,41.69
2023-06-13T01:29:20.038Z,41.57
2023-06-13T01:31:49.896Z,41.38
2023-06-13T01:34:17.852Z,41.79
2023-06-13T01:36:44.408Z,41.92
2023-06-13T01:39:11.066Z,42.58
2023-06-13T01:41:37.509Z,43.60
2023-06-13T01:44:06.262Z,44.00
2023-06-13T01:46:46.035Z,46.11
2023-06-13T01:49:27.057Z,47.27
2023-06-13T01:52:24.500Z,48.35
2023-06-13T01:54:57.462Z,49.00
2023-06-13T01:57:31.643Z,48.74
2023-06-13T01:59:59.471Z,50.46
2023-06-13T02:02:27.598Z,51.17
2023-06-13T02:04:55.788Z,52.15
2023-06-13T02:07:23.830Z,53.26
2023-06-13T02:09:50.223Z,53.57
2023-06-13T02:12:16.850Z,54.32
2023-06-13T02:14:43.707Z,54.95
2023-06-13T02:17:10.260Z,54.91
2023-06-13T02:19:36.676Z,55.29
2023-06-13T02:22:03.204Z,55.92
2023-06-13T02:24:29.722Z,56.95
2023-06-13T02:26:56.175Z,57.31
2023-06-13T02:29:22.673Z,58.37
2023-06-13T02:31:49.280Z,58.64
2023-06-13T02:34:16.351Z,59.07
2023-06-13T02:36:42.780Z,59.96
2023-06-13T02:39:09.650Z,59.60
2023-06-13T02:41:36.466Z,59.79
2023-06-13T02:44:03.656Z,59.83
2023-06-13T02:46:30.064Z,60.16
2023-06-13T02:48:56.637Z,60.39
2023-06-13T02:51:23.179Z,60.76
2023-06-13T02:53:49.907Z,61.24
2023-06-13T02:56:16.415Z,61.13
2023-06-13T02:58:42.837Z,61.46
2023-06-13T03:01:09.964Z,61.75
2023-06-13T03:03:36.524Z,62.58
2023-06-13T03:06:03.412Z,63.18
2023-06-13T03:08:29.902Z,63.46
2023-06-13T03:10:56.301Z,63.98
2023-06-13T03:13:23.310Z,64.31
2023-06-13T03:15:52.645Z,64.48
2023-06-13T03:18:19.957Z,64.68
2023-06-13T03:20:47.354Z,64.71
2023-06-13T03:23:15.443Z,65.15
2023-06-13T03:25:43.078Z,65.55
2023-06-13T03:28:10.206Z,65.58
2023-06-13T03:30:37.823Z,66.03
2023-06-13T03:33:04.942Z,66.28
2023-06-13T03:35:31.891Z,66.46
2023-06-13T03:37:58.347Z,66.78
2023-06-13T03:40:24.780Z,67.13
2023-06-13T03:42:53.848Z,67.69
2023-06-13T03:45:20.960Z,68.27
2023-06-13T03:47:47.536Z,68.00
2023-06-13T03:50:14.362Z,68.06
2023-06-13T03:52:41.283Z,68.49
2023-06-13T03:55:09.557Z,68.75
2023-06-13T03:57:36.414Z,68.56
2023-06-13T04:00:05.943Z,69.32
2023-06-13T04:02:32.463Z,68.86
2023-06-13T04:04:58.977Z,68.98
2023-06-13T04:07:26.392Z,68.88
2023-06-13T04:09:54.090Z,69.06
2023-06-13T04:12:21.877Z,69.64
2023-06-13T04:14:48.354Z,70.37
2023-06-13T04:17:14.829Z,71.05
2023-06-13T04:19:41.486Z,70.71
2023-06-13T04:22:08.391Z,71.13
2023-06-13T04:24:34.776Z,71.82
2023-06-13T04:27:04.909Z,71.96
2023-06-13T04:29:32.335Z,71.53
2023-06-13T04:31:58.932Z,71.58
2023-06-13T04:34:25.856Z,71.57
2023-06-13T04:36:56.929Z,72.11
2023-06-13T04:39:25.368Z,72.22
2023-06-13T04:41:56.621Z,70.87
2023-06-13T04:44:28.066Z,72.04
2023-06-13T04:46:58.764Z,71.27
2023-06-13T04:49:26.492Z,72.12
2023-06-13T04:51:54.203Z,72.62
2023-06-13T04:54:20.760Z,73.12
2023-06-13T04:56:47.181Z,72.61
2023-06-13T04:59:13.573Z,72.83
2023-06-13T05:01:40.254Z,73.38
2023-06-13T05:04:07.031Z,74.02
2023-06-13T05:06:35.849Z,73.70
2023-06-13T05:09:02.359Z,73.05
2023-06-13T05:11:28.912Z,73.91
2023-06-13T05:13:55.423Z,73.84
2023-06-13T05:16:28.153Z,72.91
2023-06-13T05:18:58.432Z,73.99
2023-06-13T05:21:26.069Z,73.75
2023-06-13T05:23:52.813Z,73.93
2023-06-13T05:26:19.415Z,73.50
2023-06-13T05:28:45.876Z,73.85
2023-06-13T05:31:14.302Z,73.80
2023-06-13T05:33:41.365Z,74.69
2023-06-13T05:36:07.875Z,74.00
2023-06-13T05:38:35.044Z,74.35
2023-06-13T05:41:01.566Z,74.76
2023-06-13T05:43:28.127Z,73.22
2023-06-13T05:45:54.800Z,73.23
2023-06-13T05:48:21.407Z,72.87
2023-06-13T05:50:48.383Z,72.20
2023-06-13T05:53:14.996Z,72.57
2023-06-13T05:55:41.534Z,72.15
2023-06-13T05:58:08.126Z,72.17
2023-06-13T06:00:37.432Z,70.14
2023-06-13T06:03:05.923Z,69.74
2023-06-13T06:05:32.776Z,68.32
2023-06-13T06:07:59.334Z,66.86
2023-06-13T06:10:25.990Z,61.24
2023-06-13T06:12:52.603Z,61.58
2023-06-13T06:15:19.158Z,60.92
2023-06-13T06:17:46.119Z,55.55
2023-06-13T06:20:13.240Z,53.00
2023-06-13T06:22:40.136Z,51.40
2023-06-13T06:25:09.730Z,50.25
2023-06-13T06:27:36.701Z,51.94
2023-06-13T06:30:05.967Z,46.39
2023-06-13T06:32:32.872Z,47.39
2023-06-13T06:34:59.553Z,47.66
2023-06-13T06:37:26.460Z,47.30
2023-06-13T06:39:53.041Z,47.96
2023-06-13T06:42:19.657Z,45.05
2023-06-13T06:44:46.531Z,44.86
2023-06-13T06:47:13.108Z,43.11
2023-06-13T06:49:39.865Z,43.52
2023-06-13T06:52:06.758Z,43.71
2023-06-13T06:54:34.964Z,40.99
2023-06-13T06:57:03.051Z,41.70
2023-06-13T06:59:30.987Z,40.48
2023-06-13T07:01:57.634Z,39.91
2023-06-13T07:04:24.555Z,40.41
2023-06-13T07:06:51.111Z,40.36
2023-06-13T07:09:17.572Z,40.95
2023-06-13T07:11:44.200Z,39.01
2023-06-13T07:14:11.106Z,38.50
2023-06-13T07:16:37.646Z,37.58
2023-06-13T07:19:04.217Z,38.14
2023-06-13T07:21:30.677Z,37.36
2023-06-13T07:24:06.015Z,37.77
2023-06-13T07:26:34.360Z,37.49
2023-06-13T07:29:00.980Z,38.12
2023-06-13T07:31:27.772Z,36.77
2023-06-13T07:33:54.391Z,36.53
2023-06-13T07:36:20.904Z,37.10
2023-06-13T07:38:47.371Z,36.23
2023-06-13T07:41:13.929Z,36.57
2023-06-13T07:43:41.166Z,36.05
2023-06-13T07:46:07.810Z,35.65
2023-06-13T07:48:34.395Z,35.46
2023-06-13T07:51:00.875Z,34.84
2023-06-13T07:53:27.397Z,35.07
2023-06-13T07:55:55.789Z,34.15
2023-06-13T07:58:22.408Z,34.50
2023-06-13T08:00:49.178Z,33.76
2023-06-13T08:03:15.906Z,34.35
2023-06-13T08:05:42.676Z,33.66
2023-06-13T08:08:09.300Z,34.11
2023-06-13T08:10:35.779Z,34.38
2023-06-13T08:13:02.249Z,33.55
2023-06-13T08:15:28.842Z,33.61
2023-06-13T08:17:55.978Z,32.92
2023-06-13T08:20:22.599Z,32.82
2023-06-13T08:22:49.054Z,33.33
2023-06-13T08:25:15.757Z,32.72
2023-06-13T08:27:42.948Z,32.63
2023-06-13T08:30:09.785Z,32.34
2023-06-13T08:32:36.410Z,32.13
2023-06-13T08:35:03.924Z,32.50
2023-06-13T08:37:30.586Z,32.33
2023-06-13T08:39:57.036Z,32.06
2023-06-13T08:42:23.967Z,31.62
2023-06-13T08:44:50.632Z,32.27
2023-06-13T08:47:36.460Z,32.16
2023-06-13T08:50:05.270Z,31.52
2023-06-13T08:52:39.373Z,32.53
2023-06-13T08:55:31.232Z,32.41
2023-06-13T08:57:55.887Z,32.30
2023-06-13T09:00:25.192Z,31.21
2023-06-13T09:02:53.538Z,31.23
2023-06-13T09:05:20.837Z,31.86
2023-06-13T09:07:47.894Z,32.00
2023-06-13T09:10:15.893Z,30.10
2023-06-13T09:12:45.418Z,29.82
2023-06-13T09:15:12.932Z,29.80
2023-06-13T09:17:39.960Z,30.58
2023-06-13T09:20:08.743Z,31.00
2023-06-13T09:22:37.333Z,29.86
2023-06-13T09:27:49.696Z,29.81
2023-06-13T09:30:17.105Z,29.60
2023-06-13T09:32:48.871Z,29.69
2023-06-13T09:35:20.674Z,30.09
2023-06-13T09:37:54.594Z,29.81
2023-06-13T09:40:22.900Z,28.87
2023-06-13T09:45:36.761Z,28.83
2023-06-13T09:48:03.405Z,28.70
2023-06-13T09:50:31.257Z,29.44
2023-06-13T09:52:59.355Z,29.62
2023-06-13T09:55:25.833Z,28.71
2023-06-13T09:58:14.461Z,27.70
2023-06-13T10:00:39.346Z,28.68
2023-06-13T10:03:16.435Z,28.17
2023-06-13T10:05:47.529Z,28.90
2023-06-13T10:08:14.506Z,28.18
2023-06-13T10:10:41.570Z,27.88
2023-06-13T10:13:14.621Z,27.42
2023-06-13T10:15:48.930Z,28.03
2023-06-13T10:18:20.793Z,28.13
2023-06-13T10:20:49.556Z,28.75
2023-06-13T10:23:19.221Z,27.63
2023-06-13T10:25:51.561Z,27.55
2023-06-13T10:28:40.834Z,27.94
2023-06-13T10:31:11.335Z,26.68
2023-06-13T10:33:49.994Z,27.62
2023-06-13T10:36:28.723Z,27.60
2023-06-13T10:39:10.980Z,28.22
2023-06-13T10:42:03.121Z,27.34
2023-06-13T10:44:52.896Z,28.55
2023-06-13T10:47:19.994Z,28.04
2023-06-13T10:49:49.368Z,27.11
2023-06-13T10:52:18.859Z,28.41
2023-06-13T10:54:53.731Z,28.60
2023-06-13T10:57:20.658Z,28.05
2023-06-13T10:59:49.004Z,27.78
2023-06-13T11:02:17.130Z,28.79
2023-06-13T11:04:51.591Z,29.09
2023-06-13T11:07:25.351Z,28.01
2023-06-13T11:10:21.179Z,27.99
2023-06-13T11:12:47.668Z,28.11
2023-06-13T11:15:24.661Z,26.38
2023-06-13T11:18:06.391Z,25.91
2023-06-13T11:20:33.250Z,27.97
2023-06-13T11:23:00.121Z,27.00
2023-06-13T11:25:26.573Z,25.35
2023-06-13T11:27:53.028Z,26.28
2023-06-13T11:30:20.131Z,26.83
2023-06-13T11:32:48.573Z,25.17
2023-06-13T11:35:20.686Z,25.42
2023-06-13T11:37:49.448Z,25.18
2023-06-13T11:40:24.595Z,25.64
2023-06-13T11:42:51.586Z,26.20
2023-06-13T11:45:18.466Z,25.39
2023-06-13T11:47:45.442Z,25.03
2023-06-13T11:50:12.241Z,26.22
2023-06-13T11:52:38.751Z,25.47
2023-06-13T11:55:18.725Z,24.47
2023-06-13T11:57:49.481Z,26.94
2023-06-13T12:00:17.149Z,27.77
2023-06-13T12:02:45.462Z,28.25
2023-06-13T12:05:12.424Z,25.74
2023-06-13T12:07:40.433Z,25.91
2023-06-13T12:10:07.409Z,25.14
2023-06-13T12:12:33.977Z,25.43
2023-06-13T12:15:03.699Z,25.64
2023-06-13T12:17:30.297Z,25.87
2023-06-13T12:20:13.031Z,26.25
2023-06-13T12:22:39.627Z,25.48
2023-06-13T12:25:06.821Z,25.31
2023-06-13T12:27:33.710Z,26.30
2023-06-13T12:30:14.653Z,25.83
2023-06-13T12:32:44.947Z,25.77
2023-06-13T12:35:12.344Z,25.63
2023-06-13T12:37:39.404Z,25.18
2023-06-13T12:40:17.211Z,25.51
2023-06-13T12:42:46.483Z,25.59
2023-06-13T12:45:14.866Z,26.33
2023-06-13T12:47:41.666Z,26.30
2023-06-13T12:50:10.063Z,26.32
2023-06-13T12:52:37.349Z,25.96
2023-06-13T12:55:04.984Z,26.74
2023-06-13T12:57:32.308Z,25.98
2023-06-13T12:59:58.819Z,26.08
2023-06-13T13:02:25.777Z,27.67
2023-06-13T13:04:59.555Z,26.07
2023-06-13T13:07:29.128Z,25.78
2023-06-13T13:09:56.558Z,27.02
2023-06-13T13:12:23.918Z,25.86
2023-06-13T13:14:50.801Z,26.42
2023-06-13T13:17:17.375Z,27.18
2023-06-13T13:19:43.954Z,25.81
2023-06-13T13:22:10.693Z,27.38
2023-06-13T13:24:38.605Z,26.78
2023-06-13T13:27:05.540Z,26.66
2023-06-13T13:29:32.060Z,25.98
2023-06-13T13:31:58.755Z,27.73
2023-06-13T13:34:26.597Z,26.90
2023-06-13T13:36:54.629Z,27.08
2023-06-13T13:39:22.251Z,27.63
2023-06-13T13:41:48.823Z,28.18
2023-06-13T13:44:15.532Z,28.09
2023-06-13T13:46:42.113Z,27.24
2023-06-13T13:49:08.823Z,26.65
2023-06-13T13:51:35.435Z,27.14
2023-06-13T13:54:01.906Z,27.14
2023-06-13T13:56:28.438Z,27.03
2023-06-13T13:58:54.973Z,26.91
2023-06-13T14:01:22.007Z,27.72
2023-06-13T14:03:49.296Z,29.58
2023-06-13T14:06:15.987Z,28.58
2023-06-13T14:08:42.385Z,27.33
2023-06-13T14:11:08.902Z,27.64
2023-06-13T14:13:35.861Z,27.13
2023-06-13T14:16:03.462Z,26.93
2023-06-13T14:18:30.011Z,26.76
2023-06-13T14:20:58.152Z,29.26
2023-06-13T14:23:24.525Z,27.51
2023-06-13T14:25:51.034Z,27.13
2023-06-13T14:28:17.724Z,27.30
2023-06-13T14:30:45.160Z,27.46
2023-06-13T14:33:14.627Z,27.31
2023-06-13T14:35:41.103Z,28.31
2023-06-13T14:38:07.618Z,27.98
2023-06-13T14:40:34.124Z,27.43
2023-06-13T14:43:00.693Z,27.27
2023-06-13T14:45:27.303Z,27.47
2023-06-13T14:47:55.682Z,27.30
2023-06-13T14:50:22.535Z,27.02
2023-06-13T14:52:49.002Z,27.51
2023-06-13T14:55:16.247Z,26.82
2023-06-13T14:57:42.773Z,27.33
2023-06-13T15:00:11.287Z,26.92
2023-06-13T15:02:38.685Z,26.82
2023-06-13T15:05:05.932Z,28.67
2023-06-13T15:07:32.640Z,26.50
2023-06-13T15:09:59.430Z,27.32
2023-06-13T15:12:26.092Z,27.89
2023-06-13T15:14:52.570Z,28.35
2023-06-13T15:17:19.337Z,28.81
2023-06-13T15:19:46.084Z,28.92
2023-06-13T15:22:13.025Z,28.13
2023-06-13T15:24:39.414Z,28.07
2023-06-13T15:27:06.566Z,27.76
2023-06-13T15:29:33.077Z,27.17
2023-06-13T15:31:59.768Z,27.93
2023-06-13T15:34:30.577Z,28.09
2023-06-13T15:36:57.048Z,27.47
2023-06-13T15:39:23.539Z,28.38
2023-06-13T15:41:49.943Z,29.26
2023-06-13T15:44:16.337Z,28.21
2023-06-13T15:46:44.001Z,28.09
2023-06-13T15:49:10.528Z,27.66
2023-06-13T15:51:38.198Z,29.10
2023-06-13T15:54:05.221Z,28.63
2023-06-13T15:56:31.751Z,29.90
2023-06-13T15:58:58.205Z,29.96
2023-06-13T16:01:26.581Z,28.78
2023-06-13T16:03:53.321Z,29.04
2023-06-13T16:06:20.098Z,29.46
2023-06-13T16:08:47.432Z,30.09
2023-06-13T16:11:14.159Z,29.42
2023-06-13T16:13:41.371Z,29.80
2023-06-13T16:16:08.086Z,29.53
2023-06-13T16:18:36.027Z,29.04
2023-06-13T16:21:02.560Z,29.73
2023-06-13T16:23:29.102Z,30.35
2023-06-13T16:25:55.579Z,30.19
2023-06-13T16:28:22.044Z,29.66
2023-06-13T16:30:48.575Z,29.96
2023-06-13T16:33:16.531Z,30.25
2023-06-13T16:35:43.154Z,30.49
2023-06-13T16:38:09.627Z,30.35
2023-06-13T16:40:36.151Z,30.60
2023-06-13T16:43:02.592Z,30.59
2023-06-13T16:45:29.013Z,30.69
2023-06-13T16:47:55.531Z,30.88
2023-06-13T16:50:22.097Z,30.83
2023-06-13T16:52:51.419Z,31.30
2023-06-13T16:55:18.048Z,30.77
2023-06-13T16:57:44.991Z,30.68
2023-06-13T17:00:12.297Z,30.80
2023-06-13T17:02:39.046Z,30.78
2023-06-13T17:05:06.253Z,31.26
2023-06-13T17:07:32.752Z,31.07
2023-06-13T17:09:59.158Z,31.14
2023-06-13T17:12:25.848Z,31.73
2023-06-13T17:14:52.544Z,32.32
2023-06-13T17:17:18.997Z,32.20
2023-06-13T17:19:45.603Z,32.31
2023-06-13T17:22:12.439Z,31.62
2023-06-13T17:24:38.873Z,32.04
2023-06-13T17:27:05.555Z,31.42
2023-06-13T17:29:32.106Z,31.74
2023-06-13T17:31:58.649Z,31.88
2023-06-13T17:34:25.784Z,31.44
2023-06-13T17:36:54.098Z,31.13
2023-06-13T17:39:20.952Z,31.53
2023-06-13T17:41:47.544Z,31.87
2023-06-13T17:44:14.047Z,32.00
2023-06-13T17:46:42.136Z,32.29
2023-06-13T17:49:10.528Z,32.00
2023-06-13T17:51:39.690Z,32.15
2023-06-13T17:54:06.217Z,31.33
2023-06-13T17:56:32.804Z,32.50
2023-06-13T17:58:59.554Z,32.60
2023-06-13T18:01:26.214Z,32.18
2023-06-13T18:03:52.849Z,32.55
2023-06-13T18:06:22.090Z,32.34
2023-06-13T18:08:48.938Z,32.73
2023-06-13T18:11:16.288Z,32.32
2023-06-13T18:13:42.981Z,32.97
2023-06-13T18:16:09.538Z,31.91
2023-06-13T18:18:36.231Z,31.64
2023-06-13T18:21:02.962Z,31.94
2023-06-13T18:23:29.388Z,32.61
2023-06-13T18:25:55.895Z,31.74
2023-06-13T18:28:24.035Z,32.00
2023-06-13T18:30:50.791Z,32.25
2023-06-13T18:33:17.533Z,32.07
2023-06-13T18:35:45.542Z,32.80
2023-06-13T18:38:12.076Z,32.32
2023-06-13T18:40:38.640Z,32.38
2023-06-13T18:43:05.111Z,32.55
2023-06-13T18:45:32.000Z,32.30
2023-06-13T18:47:59.873Z,32.90
2023-06-13T18:50:26.865Z,32.32
2023-06-13T18:53:03.614Z,32.70
2023-06-13T18:55:33.781Z,32.88
2023-06-13T18:58:00.519Z,32.66
2023-06-13T19:00:30.395Z,32.81
2023-06-13T19:02:58.343Z,35.16
2023-06-13T19:05:25.644Z,34.74
2023-06-13T19:07:52.373Z,34.55
2023-06-13T19:10:19.339Z,34.18
2023-06-13T19:12:46.538Z,34.92
2023-06-13T19:15:14.050Z,34.84
2023-06-13T19:17:41.023Z,35.23
2023-06-13T19:20:08.348Z,34.10
2023-06-13T19:22:34.805Z,35.15
2023-06-13T19:25:01.511Z,35.79
2023-06-13T19:27:27.991Z,36.04
2023-06-13T19:29:54.511Z,35.57
2023-06-13T19:32:21.059Z,36.14
2023-06-13T19:34:47.480Z,36.08
2023-06-13T19:37:13.983Z,36.72
2023-06-13T19:39:40.736Z,36.71
2023-06-13T19:42:08.485Z,36.11
2023-06-13T19:44:34.976Z,35.68
2023-06-13T19:47:01.498Z,35.62
2023-06-13T19:49:28.655Z,35.50
2023-06-13T19:51:55.119Z,36.61
2023-06-13T19:54:22.016Z,38.05
2023-06-13T19:56:50.499Z,36.96
2023-06-13T19:59:17.678Z,35.60
2023-06-13T20:01:44.335Z,36.68
2023-06-13T20:04:13.444Z,35.95
2023-06-13T20:06:40.687Z,36.04
2023-06-13T20:09:07.355Z,36.59
2023-06-13T20:11:34.805Z,35.96
2023-06-13T20:14:02.145Z,35.92
2023-06-13T20:16:29.613Z,36.04
2023-06-13T20:18:56.673Z,37.02
2023-06-13T20:21:23.233Z,36.28
2023-06-13T20:23:50.536Z,37.14
2023-06-13T20:26:17.961Z,36.65
2023-06-13T20:28:44.438Z,36.73
2023-06-13T20:31:10.844Z,37.38
2023-06-13T20:33:37.886Z,36.58
2023-06-13T20:36:04.579Z,37.20
2023-06-13T20:38:31.040Z,36.54
2023-06-13T20:40:57.776Z,36.71
2023-06-13T20:43:24.252Z,36.73
2023-06-13T20:45:56.228Z,35.99
2023-06-13T20:48:25.598Z,36.41
2023-06-13T20:50:53.317Z,37.31
2023-06-13T20:53:20.338Z,37.41
2023-06-13T20:55:47.243Z,36.53
2023-06-13T20:58:14.358Z,37.39
2023-06-13T21:00:42.643Z,37.12
2023-06-13T21:03:11.165Z,37.00
2023-06-13T21:05:37.830Z,37.05
2023-06-13T21:08:04.549Z,37.11
2023-06-13T21:10:31.403Z,37.43
2023-06-13T21:12:58.002Z,37.61
2023-06-13T21:15:25.669Z,37.57
2023-06-13T21:17:53.840Z,37.10
2023-06-13T21:20:22.346Z,37.46
2023-06-13T21:22:49.069Z,38.03
2023-06-13T21:25:19.379Z,38.01
2023-06-13T21:27:46.493Z,38.39
2023-06-13T21:30:15.421Z,37.91
2023-06-13T21:32:44.088Z,38.39
2023-06-13T21:35:11.429Z,38.49
2023-06-13T21:37:38.226Z,37.83
2023-06-13T21:40:09.707Z,38.76
2023-06-13T21:42:37.154Z,38.62
2023-06-13T21:45:05.188Z,39.13
2023-06-13T21:47:34.711Z,38.63
2023-06-13T21:50:02.447Z,38.44
2023-06-13T21:52:28.979Z,39.96
2023-06-13T21:54:55.639Z,39.93
2023-06-13T21:57:22.202Z,39.71
2023-06-13T21:59:48.663Z,38.66
2023-06-13T22:02:15.076Z,39.26
2023-06-13T22:04:41.955Z,39.21
2023-06-13T22:07:08.524Z,38.94
2023-06-13T22:09:35.022Z,40.01
2023-06-13T22:12:03.926Z,39.83
2023-06-13T22:14:30.591Z,39.86
2023-06-13T22:16:57.889Z,39.71
2023-06-13T22:19:25.260Z,39.41
2023-06-13T22:21:52.443Z,40.44
2023-06-13T22:24:19.344Z,41.28
2023-06-13T22:26:47.084Z,40.91
2023-06-13T22:29:14.409Z,41.55
2023-06-13T22:31:41.546Z,41.92
2023-06-13T22:34:08.187Z,41.66
2023-06-13T22:36:34.704Z,42.40
2023-06-13T22:39:01.410Z,42.41
2023-06-13T22:41:28.062Z,42.70
2023-06-13T22:43:54.503Z,43.42
2023-06-13T22:46:20.985Z,43.66
2023-06-13T22:48:49.046Z,44.71
2023-06-13T22:51:17.655Z,45.41
2023-06-13T22:53:44.786Z,46.29
2023-06-13T22:56:11.812Z,46.99
2023-06-13T22:58:38.367Z,48.17
2023-06-13T23:01:04.976Z,49.83
2023-06-13T23:03:31.568Z,51.21
2023-06-13T23:05:58.614Z,52.53
2023-06-13T23:08:25.185Z,53.39
2023-06-13T23:10:52.855Z,53.45
2023-06-13T23:13:19.370Z,53.93
2023-06-13T23:15:46.153Z,53.89
2023-06-13T23:18:12.724Z,53.59
2023-06-13T23:20:39.166Z,54.48
2023-06-13T23:23:06.325Z,54.06
2023-06-13T23:25:34.219Z,54.58
2023-06-13T23:28:01.966Z,54.60
2023-06-13T23:30:31.577Z,54.96
2023-06-13T23:32:58.992Z,56.15
2023-06-13T23:35:25.785Z,55.95
2023-06-13T23:37:52.360Z,56.16
2023-06-13T23:40:19.846Z,56.48
2023-06-13T23:42:46.887Z,56.85
2023-06-13T23:45:13.640Z,57.22
2023-06-13T23:47:40.360Z,58.34
2023-06-13T23:50:07.312Z,57.93
2023-06-13T23:52:33.712Z,58.09
2023-06-13T23:55:00.258Z,58.95
2023-06-13T23:57:26.827Z,59.60
2023-06-13T23:59:53.245Z,59.25
